sensor_id;sensor_type;location;lat;lon;timestamp;P1;durP1;ratioP1;P2;durP2;ratioP2
66189;SDS011;52992;52.084;5.412;2023-04-24T00:01:07;41.70;;;39.80;;
66189;SDS011;52992;52.084;5.412;2023-04-24T00:03:35;41.33;;;39.63;;
66189;SDS011;52992;52.084;5.412;2023-04-24T00:06:03;41.90;;;40.10;;
66189;SDS011;52992;52.084;5.412;2023-04-24T00:08:31;41.43;;;39.53;;
66189;SDS011;52992;52.084;5.412;2023-04-24T00:10:58;41.00;;;39.20;;
66189;SDS011;52992;52.084;5.412;2023-04-24T00:13:25;41.30;;;39.50;;
66189;SDS011;52992;52.084;5.412;2023-04-24T00:15:55;41.60;;;39.70;;
66189;SDS011;52992;52.084;5.412;2023-04-24T00:18:22;42.73;;;40.73;;
66189;SDS011;52992;52.084;5.412;2023-04-24T00:20:48;40.53;;;38.60;;
66189;SDS011;52992;52.084;5.412;2023-04-24T00:23:15;41.23;;;39.23;;
66189;SDS011;52992;52.084;5.412;2023-04-24T00:25:42;43.53;;;40.80;;
66189;SDS011;52992;52.084;5.412;2023-04-24T00:28:09;40.07;;;37.97;;
66189;SDS011;52992;52.084;5.412;2023-04-24T00:30:36;40.40;;;38.50;;
66189;SDS011;52992;52.084;5.412;2023-04-24T00:33:03;41.27;;;39.27;;
66189;SDS011;52992;52.084;5.412;2023-04-24T00:35:31;41.93;;;39.73;;
66189;SDS011;52992;52.084;5.412;2023-04-24T00:37:58;41.67;;;39.77;;
66189;SDS011;52992;52.084;5.412;2023-04-24T00:40:24;42.37;;;40.37;;
66189;SDS011;52992;52.084;5.412;2023-04-24T00:42:52;42.27;;;40.37;;
66189;SDS011;52992;52.084;5.412;2023-04-24T00:45:19;43.23;;;41.30;;
66189;SDS011;52992;52.084;5.412;2023-04-24T00:47:46;43.00;;;40.77;;
66189;SDS011;52992;52.084;5.412;2023-04-24T00:50:15;42.33;;;40.33;;
66189;SDS011;52992;52.084;5.412;2023-04-24T00:52:43;42.70;;;40.60;;
66189;SDS011;52992;52.084;5.412;2023-04-24T00:55:10;41.90;;;39.90;;
66189;SDS011;52992;52.084;5.412;2023-04-24T00:57:37;44.70;;;42.33;;
66189;SDS011;52992;52.084;5.412;2023-04-24T01:00:05;44.57;;;42.37;;
66189;SDS011;52992;52.084;5.412;2023-04-24T01:02:37;43.97;;;41.73;;
66189;SDS011;52992;52.084;5.412;2023-04-24T01:05:07;44.90;;;42.60;;
66189;SDS011;52992;52.084;5.412;2023-04-24T01:07:34;45.30;;;43.10;;
66189;SDS011;52992;52.084;5.412;2023-04-24T01:10:02;45.17;;;42.87;;
66189;SDS011;52992;52.084;5.412;2023-04-24T01:12:29;44.90;;;42.30;;
66189;SDS011;52992;52.084;5.412;2023-04-24T01:14:56;45.43;;;42.70;;
66189;SDS011;52992;52.084;5.412;2023-04-24T01:17:23;45.37;;;42.83;;
66189;SDS011;52992;52.084;5.412;2023-04-24T01:19:50;43.83;;;41.67;;
66189;SDS011;52992;52.084;5.412;2023-04-24T01:22:22;45.10;;;42.80;;
66189;SDS011;52992;52.084;5.412;2023-04-24T01:24:49;46.77;;;44.37;;
66189;SDS011;52992;52.084;5.412;2023-04-24T01:27:17;44.97;;;42.67;;
66189;SDS011;52992;52.084;5.412;2023-04-24T01:29:44;45.47;;;43.17;;
66189;SDS011;52992;52.084;5.412;2023-04-24T01:32:11;46.30;;;43.70;;
66189;SDS011;52992;52.084;5.412;2023-04-24T01:34:39;44.17;;;41.77;;
66189;SDS011;52992;52.084;5.412;2023-04-24T01:37:06;44.93;;;42.53;;
66189;SDS011;52992;52.084;5.412;2023-04-24T01:39:33;46.60;;;44.03;;
66189;SDS011;52992;52.084;5.412;2023-04-24T01:42:00;45.37;;;42.90;;
66189;SDS011;52992;52.084;5.412;2023-04-24T01:44:28;46.70;;;44.20;;
66189;SDS011;52992;52.084;5.412;2023-04-24T01:46:56;46.80;;;43.93;;
66189;SDS011;52992;52.084;5.412;2023-04-24T01:49:23;45.87;;;43.57;;
66189;SDS011;52992;52.084;5.412;2023-04-24T01:51:50;47.10;;;44.80;;
66189;SDS011;52992;52.084;5.412;2023-04-24T01:54:17;46.73;;;44.23;;
66189;SDS011;52992;52.084;5.412;2023-04-24T01:56:44;46.57;;;44.17;;
66189;SDS011;52992;52.084;5.412;2023-04-24T01:59:12;46.27;;;43.97;;
66189;SDS011;52992;52.084;5.412;2023-04-24T02:01:39;45.80;;;43.50;;
66189;SDS011;52992;52.084;5.412;2023-04-24T02:04:06;45.33;;;43.20;;
66189;SDS011;52992;52.084;5.412;2023-04-24T02:06:34;48.10;;;45.53;;
66189;SDS011;52992;52.084;5.412;2023-04-24T02:09:01;46.97;;;44.57;;
66189;SDS011;52992;52.084;5.412;2023-04-24T02:11:29;47.20;;;44.60;;
66189;SDS011;52992;52.084;5.412;2023-04-24T02:13:56;47.73;;;45.10;;
66189;SDS011;52992;52.084;5.412;2023-04-24T02:16:24;46.17;;;43.87;;
66189;SDS011;52992;52.084;5.412;2023-04-24T02:18:51;46.47;;;44.00;;
66189;SDS011;52992;52.084;5.412;2023-04-24T02:21:18;44.27;;;42.17;;
66189;SDS011;52992;52.084;5.412;2023-04-24T02:23:44;44.87;;;42.60;;
66189;SDS011;52992;52.084;5.412;2023-04-24T02:26:12;45.30;;;43.10;;
66189;SDS011;52992;52.084;5.412;2023-04-24T02:28:39;46.00;;;43.70;;
66189;SDS011;52992;52.084;5.412;2023-04-24T02:31:06;45.87;;;43.77;;
66189;SDS011;52992;52.084;5.412;2023-04-24T02:33:33;47.20;;;44.80;;
66189;SDS011;52992;52.084;5.412;2023-04-24T02:36:00;47.17;;;44.87;;
66189;SDS011;52992;52.084;5.412;2023-04-24T02:38:27;46.73;;;44.33;;
66189;SDS011;52992;52.084;5.412;2023-04-24T02:40:54;47.33;;;44.73;;
66189;SDS011;52992;52.084;5.412;2023-04-24T02:43:21;47.77;;;45.27;;
66189;SDS011;52992;52.084;5.412;2023-04-24T02:45:49;47.40;;;45.00;;
66189;SDS011;52992;52.084;5.412;2023-04-24T02:48:16;47.70;;;45.30;;
66189;SDS011;52992;52.084;5.412;2023-04-24T02:50:43;48.03;;;45.63;;
66189;SDS011;52992;52.084;5.412;2023-04-24T02:53:10;48.40;;;45.33;;
66189;SDS011;52992;52.084;5.412;2023-04-24T02:55:37;48.07;;;45.47;;
66189;SDS011;52992;52.084;5.412;2023-04-24T02:58:04;47.37;;;44.97;;
66189;SDS011;52992;52.084;5.412;2023-04-24T03:00:32;48.17;;;45.77;;
66189;SDS011;52992;52.084;5.412;2023-04-24T03:02:59;49.50;;;46.83;;
66189;SDS011;52992;52.084;5.412;2023-04-24T03:05:26;47.43;;;45.10;;
66189;SDS011;52992;52.084;5.412;2023-04-24T03:07:53;46.17;;;43.90;;
66189;SDS011;52992;52.084;5.412;2023-04-24T03:10:20;46.17;;;43.87;;
66189;SDS011;52992;52.084;5.412;2023-04-24T03:12:49;48.67;;;46.10;;
66189;SDS011;52992;52.084;5.412;2023-04-24T03:15:17;47.47;;;44.87;;
66189;SDS011;52992;52.084;5.412;2023-04-24T03:17:44;48.97;;;46.37;;
66189;SDS011;52992;52.084;5.412;2023-04-24T03:20:12;47.53;;;45.13;;
66189;SDS011;52992;52.084;5.412;2023-04-24T03:22:39;48.90;;;46.30;;
66189;SDS011;52992;52.084;5.412;2023-04-24T03:25:07;48.30;;;45.80;;
66189;SDS011;52992;52.084;5.412;2023-04-24T03:27:36;46.60;;;44.30;;
66189;SDS011;52992;52.084;5.412;2023-04-24T03:30:16;48.20;;;45.70;;
66189;SDS011;52992;52.084;5.412;2023-04-24T03:32:51;45.67;;;43.47;;
66189;SDS011;52992;52.084;5.412;2023-04-24T03:35:22;48.33;;;46.00;;
66189;SDS011;52992;52.084;5.412;2023-04-24T03:37:51;47.07;;;44.87;;
66189;SDS011;52992;52.084;5.412;2023-04-24T03:40:37;46.17;;;43.97;;
66189;SDS011;52992;52.084;5.412;2023-04-24T03:43:13;44.23;;;41.97;;
66189;SDS011;52992;52.084;5.412;2023-04-24T03:45:40;46.27;;;44.07;;
66189;SDS011;52992;52.084;5.412;2023-04-24T03:48:08;45.53;;;43.27;;
66189;SDS011;52992;52.084;5.412;2023-04-24T03:50:36;45.27;;;42.87;;
66189;SDS011;52992;52.084;5.412;2023-04-24T03:53:04;45.67;;;43.33;;
66189;SDS011;52992;52.084;5.412;2023-04-24T03:55:35;46.33;;;43.73;;
66189;SDS011;52992;52.084;5.412;2023-04-24T03:58:02;46.83;;;44.33;;
66189;SDS011;52992;52.084;5.412;2023-04-24T04:00:29;44.70;;;42.40;;
66189;SDS011;52992;52.084;5.412;2023-04-24T04:03:17;45.07;;;42.53;;
66189;SDS011;52992;52.084;5.412;2023-04-24T04:05:45;46.83;;;44.37;;
66189;SDS011;52992;52.084;5.412;2023-04-24T04:08:12;44.80;;;42.60;;
66189;SDS011;52992;52.084;5.412;2023-04-24T04:10:39;43.77;;;41.57;;
66189;SDS011;52992;52.084;5.412;2023-04-24T04:13:06;45.00;;;42.90;;
66189;SDS011;52992;52.084;5.412;2023-04-24T04:15:34;44.53;;;42.53;;
66189;SDS011;52992;52.084;5.412;2023-04-24T04:18:02;45.00;;;42.90;;
66189;SDS011;52992;52.084;5.412;2023-04-24T04:20:29;44.20;;;42.13;;
66189;SDS011;52992;52.084;5.412;2023-04-24T04:22:56;44.20;;;42.10;;
66189;SDS011;52992;52.084;5.412;2023-04-24T04:25:34;44.50;;;42.30;;
66189;SDS011;52992;52.084;5.412;2023-04-24T04:28:01;46.53;;;44.33;;
66189;SDS011;52992;52.084;5.412;2023-04-24T04:30:28;46.80;;;44.30;;
66189;SDS011;52992;52.084;5.412;2023-04-24T04:33:01;45.33;;;43.23;;
66189;SDS011;52992;52.084;5.412;2023-04-24T04:35:30;45.27;;;42.77;;
66189;SDS011;52992;52.084;5.412;2023-04-24T04:37:57;45.40;;;43.20;;
66189;SDS011;52992;52.084;5.412;2023-04-24T04:40:45;45.37;;;43.07;;
66189;SDS011;52992;52.084;5.412;2023-04-24T04:43:13;45.63;;;43.40;;
66189;SDS011;52992;52.084;5.412;2023-04-24T04:45:49;45.57;;;43.30;;
66189;SDS011;52992;52.084;5.412;2023-04-24T04:48:53;44.57;;;42.23;;
66189;SDS011;52992;52.084;5.412;2023-04-24T04:51:20;44.37;;;41.97;;
66189;SDS011;52992;52.084;5.412;2023-04-24T04:53:47;45.53;;;43.03;;
66189;SDS011;52992;52.084;5.412;2023-04-24T04:56:14;47.23;;;44.73;;
66189;SDS011;52992;52.084;5.412;2023-04-24T04:58:44;49.03;;;46.33;;
66189;SDS011;52992;52.084;5.412;2023-04-24T05:01:14;47.40;;;44.80;;
66189;SDS011;52992;52.084;5.412;2023-04-24T05:03:44;46.70;;;44.33;;
66189;SDS011;52992;52.084;5.412;2023-04-24T05:06:14;49.47;;;46.80;;
66189;SDS011;52992;52.084;5.412;2023-04-24T05:08:42;50.87;;;48.13;;
66189;SDS011;52992;52.084;5.412;2023-04-24T05:11:29;49.57;;;46.97;;
66189;SDS011;52992;52.084;5.412;2023-04-24T05:13:58;51.27;;;48.47;;
66189;SDS011;52992;52.084;5.412;2023-04-24T05:16:32;50.33;;;47.73;;
66189;SDS011;52992;52.084;5.412;2023-04-24T05:19:00;48.30;;;45.87;;
66189;SDS011;52992;52.084;5.412;2023-04-24T05:21:33;48.47;;;46.17;;
66189;SDS011;52992;52.084;5.412;2023-04-24T05:24:00;48.10;;;45.70;;
66189;SDS011;52992;52.084;5.412;2023-04-24T05:26:43;46.20;;;43.87;;
66189;SDS011;52992;52.084;5.412;2023-04-24T05:29:11;50.10;;;47.37;;
66189;SDS011;52992;52.084;5.412;2023-04-24T05:31:38;50.10;;;47.67;;
66189;SDS011;52992;52.084;5.412;2023-04-24T05:34:05;46.20;;;43.93;;
66189;SDS011;52992;52.084;5.412;2023-04-24T05:36:33;48.10;;;45.90;;
66189;SDS011;52992;52.084;5.412;2023-04-24T05:39:00;47.77;;;45.53;;
66189;SDS011;52992;52.084;5.412;2023-04-24T05:41:27;49.37;;;46.97;;
66189;SDS011;52992;52.084;5.412;2023-04-24T05:43:54;50.47;;;47.87;;
66189;SDS011;52992;52.084;5.412;2023-04-24T05:46:21;49.80;;;47.30;;
66189;SDS011;52992;52.084;5.412;2023-04-24T05:48:48;50.63;;;48.03;;
66189;SDS011;52992;52.084;5.412;2023-04-24T05:51:15;50.83;;;48.33;;
66189;SDS011;52992;52.084;5.412;2023-04-24T05:53:44;49.00;;;46.23;;
66189;SDS011;52992;52.084;5.412;2023-04-24T05:56:11;50.07;;;47.37;;
66189;SDS011;52992;52.084;5.412;2023-04-24T05:58:39;51.13;;;48.63;;
66189;SDS011;52992;52.084;5.412;2023-04-24T06:01:07;50.37;;;47.20;;
66189;SDS011;52992;52.084;5.412;2023-04-24T06:03:34;49.93;;;47.50;;
66189;SDS011;52992;52.084;5.412;2023-04-24T06:06:02;47.97;;;45.67;;
66189;SDS011;52992;52.084;5.412;2023-04-24T06:08:29;48.60;;;46.10;;
66189;SDS011;52992;52.084;5.412;2023-04-24T06:10:56;46.73;;;44.27;;
66189;SDS011;52992;52.084;5.412;2023-04-24T06:13:24;45.33;;;42.83;;
66189;SDS011;52992;52.084;5.412;2023-04-24T06:16:20;45.80;;;43.23;;
66189;SDS011;52992;52.084;5.412;2023-04-24T06:18:54;42.50;;;40.70;;
66189;SDS011;52992;52.084;5.412;2023-04-24T06:21:21;40.17;;;38.43;;
66189;SDS011;52992;52.084;5.412;2023-04-24T06:23:49;44.87;;;42.87;;
66189;SDS011;52992;52.084;5.412;2023-04-24T06:26:16;45.20;;;43.30;;
66189;SDS011;52992;52.084;5.412;2023-04-24T06:28:43;42.53;;;40.53;;
66189;SDS011;52992;52.084;5.412;2023-04-24T06:31:09;41.20;;;39.43;;
66189;SDS011;52992;52.084;5.412;2023-04-24T06:33:37;40.20;;;38.40;;
66189;SDS011;52992;52.084;5.412;2023-04-24T06:36:04;39.70;;;38.10;;
66189;SDS011;52992;52.084;5.412;2023-04-24T06:38:31;41.13;;;39.10;;
66189;SDS011;52992;52.084;5.412;2023-04-24T06:40:58;39.77;;;37.97;;
66189;SDS011;52992;52.084;5.412;2023-04-24T06:43:25;38.23;;;36.63;;
66189;SDS011;52992;52.084;5.412;2023-04-24T06:45:52;39.50;;;37.80;;
66189;SDS011;52992;52.084;5.412;2023-04-24T06:48:19;38.70;;;36.87;;
66189;SDS011;52992;52.084;5.412;2023-04-24T06:50:46;39.83;;;37.63;;
66189;SDS011;52992;52.084;5.412;2023-04-24T06:53:13;40.43;;;37.90;;
66189;SDS011;52992;52.084;5.412;2023-04-24T06:55:40;40.10;;;37.60;;
66189;SDS011;52992;52.084;5.412;2023-04-24T06:58:08;41.23;;;38.60;;
66189;SDS011;52992;52.084;5.412;2023-04-24T07:00:35;42.83;;;39.93;;
66189;SDS011;52992;52.084;5.412;2023-04-24T07:03:02;42.50;;;39.50;;
66189;SDS011;52992;52.084;5.412;2023-04-24T07:05:29;42.23;;;39.33;;
66189;SDS011;52992;52.084;5.412;2023-04-24T07:07:57;44.93;;;42.00;;
66189;SDS011;52992;52.084;5.412;2023-04-24T07:10:24;45.97;;;42.67;;
66189;SDS011;52992;52.084;5.412;2023-04-24T07:12:53;43.50;;;40.53;;
66189;SDS011;52992;52.084;5.412;2023-04-24T07:15:20;45.00;;;41.33;;
66189;SDS011;52992;52.084;5.412;2023-04-24T07:17:47;43.20;;;40.17;;
66189;SDS011;52992;52.084;5.412;2023-04-24T07:20:14;43.13;;;39.97;;
66189;SDS011;52992;52.084;5.412;2023-04-24T07:22:42;44.10;;;41.10;;
66189;SDS011;52992;52.084;5.412;2023-04-24T07:25:09;43.13;;;39.87;;
66189;SDS011;52992;52.084;5.412;2023-04-24T07:27:36;43.47;;;40.33;;
66189;SDS011;52992;52.084;5.412;2023-04-24T07:30:03;43.27;;;40.37;;
66189;SDS011;52992;52.084;5.412;2023-04-24T07:32:31;44.43;;;41.17;;
66189;SDS011;52992;52.084;5.412;2023-04-24T07:34:57;44.37;;;41.20;;
66189;SDS011;52992;52.084;5.412;2023-04-24T07:37:24;46.93;;;43.47;;
66189;SDS011;52992;52.084;5.412;2023-04-24T07:39:51;42.47;;;39.47;;
66189;SDS011;52992;52.084;5.412;2023-04-24T07:42:18;44.33;;;41.17;;
66189;SDS011;52992;52.084;5.412;2023-04-24T07:44:45;44.03;;;40.77;;
66189;SDS011;52992;52.084;5.412;2023-04-24T07:47:13;43.23;;;39.90;;
66189;SDS011;52992;52.084;5.412;2023-04-24T07:49:43;42.63;;;40.03;;
66189;SDS011;52992;52.084;5.412;2023-04-24T07:52:10;43.13;;;40.13;;
66189;SDS011;52992;52.084;5.412;2023-04-24T07:54:37;43.60;;;40.87;;
66189;SDS011;52992;52.084;5.412;2023-04-24T07:57:04;42.67;;;39.57;;
66189;SDS011;52992;52.084;5.412;2023-04-24T07:59:33;44.37;;;40.97;;
66189;SDS011;52992;52.084;5.412;2023-04-24T08:02:00;43.60;;;39.73;;
66189;SDS011;52992;52.084;5.412;2023-04-24T08:04:27;44.80;;;41.40;;
66189;SDS011;52992;52.084;5.412;2023-04-24T08:06:55;45.00;;;41.80;;
66189;SDS011;52992;52.084;5.412;2023-04-24T08:09:21;45.43;;;41.77;;
66189;SDS011;52992;52.084;5.412;2023-04-24T08:11:49;44.47;;;41.07;;
66189;SDS011;52992;52.084;5.412;2023-04-24T08:14:16;43.27;;;40.33;;
66189;SDS011;52992;52.084;5.412;2023-04-24T08:16:43;43.53;;;40.07;;
66189;SDS011;52992;52.084;5.412;2023-04-24T08:19:10;41.77;;;38.50;;
66189;SDS011;52992;52.084;5.412;2023-04-24T08:21:37;39.40;;;36.47;;
66189;SDS011;52992;52.084;5.412;2023-04-24T08:24:03;38.83;;;36.23;;
66189;SDS011;52992;52.084;5.412;2023-04-24T08:26:33;37.90;;;34.83;;
66189;SDS011;52992;52.084;5.412;2023-04-24T08:29:01;37.57;;;34.67;;
66189;SDS011;52992;52.084;5.412;2023-04-24T08:31:28;37.90;;;35.40;;
66189;SDS011;52992;52.084;5.412;2023-04-24T08:33:55;36.97;;;34.67;;
66189;SDS011;52992;52.084;5.412;2023-04-24T08:36:22;38.43;;;35.70;;
66189;SDS011;52992;52.084;5.412;2023-04-24T08:39:01;38.23;;;35.37;;
66189;SDS011;52992;52.084;5.412;2023-04-24T08:41:28;37.90;;;34.60;;
66189;SDS011;52992;52.084;5.412;2023-04-24T08:43:56;39.77;;;36.70;;
66189;SDS011;52992;52.084;5.412;2023-04-24T08:46:24;38.50;;;35.97;;
66189;SDS011;52992;52.084;5.412;2023-04-24T08:48:52;36.83;;;33.93;;
66189;SDS011;52992;52.084;5.412;2023-04-24T08:51:19;39.70;;;36.30;;
66189;SDS011;52992;52.084;5.412;2023-04-24T08:53:46;37.87;;;35.30;;
66189;SDS011;52992;52.084;5.412;2023-04-24T08:56:13;38.87;;;36.30;;
66189;SDS011;52992;52.084;5.412;2023-04-24T08:58:41;37.23;;;34.80;;
66189;SDS011;52992;52.084;5.412;2023-04-24T09:01:08;36.40;;;34.50;;
66189;SDS011;52992;52.084;5.412;2023-04-24T09:03:35;37.17;;;34.97;;
66189;SDS011;52992;52.084;5.412;2023-04-24T09:06:03;35.77;;;33.43;;
66189;SDS011;52992;52.084;5.412;2023-04-24T09:08:32;38.57;;;35.77;;
66189;SDS011;52992;52.084;5.412;2023-04-24T09:10:59;38.87;;;36.37;;
66189;SDS011;52992;52.084;5.412;2023-04-24T09:13:28;38.13;;;35.70;;
66189;SDS011;52992;52.084;5.412;2023-04-24T09:15:57;37.70;;;35.50;;
66189;SDS011;52992;52.084;5.412;2023-04-24T09:18:25;38.67;;;36.53;;
66189;SDS011;52992;52.084;5.412;2023-04-24T09:21:02;35.50;;;33.47;;
66189;SDS011;52992;52.084;5.412;2023-04-24T09:23:32;39.93;;;37.73;;
66189;SDS011;52992;52.084;5.412;2023-04-24T09:26:00;39.53;;;37.03;;
66189;SDS011;52992;52.084;5.412;2023-04-24T09:28:32;40.93;;;38.23;;
66189;SDS011;52992;52.084;5.412;2023-04-24T09:31:05;37.93;;;35.57;;
66189;SDS011;52992;52.084;5.412;2023-04-24T09:33:32;38.73;;;35.93;;
66189;SDS011;52992;52.084;5.412;2023-04-24T09:35:59;34.03;;;31.97;;
66189;SDS011;52992;52.084;5.412;2023-04-24T09:38:33;33.43;;;31.23;;
66189;SDS011;52992;52.084;5.412;2023-04-24T09:41:02;45.00;;;40.17;;
66189;SDS011;52992;52.084;5.412;2023-04-24T09:43:31;30.67;;;27.83;;
66189;SDS011;52992;52.084;5.412;2023-04-24T09:45:58;30.10;;;28.47;;
66189;SDS011;52992;52.084;5.412;2023-04-24T09:48:31;35.83;;;33.80;;
66189;SDS011;52992;52.084;5.412;2023-04-24T09:51:03;30.07;;;27.93;;
66189;SDS011;52992;52.084;5.412;2023-04-24T09:53:33;35.80;;;33.37;;
66189;SDS011;52992;52.084;5.412;2023-04-24T09:56:06;38.43;;;35.70;;
66189;SDS011;52992;52.084;5.412;2023-04-24T09:58:38;31.50;;;29.07;;
66189;SDS011;52992;52.084;5.412;2023-04-24T10:01:04;30.77;;;28.80;;
66189;SDS011;52992;52.084;5.412;2023-04-24T10:03:32;29.80;;;27.93;;
66189;SDS011;52992;52.084;5.412;2023-04-24T10:06:01;30.83;;;28.83;;
66189;SDS011;52992;52.084;5.412;2023-04-24T10:08:33;25.03;;;23.63;;
66189;SDS011;52992;52.084;5.412;2023-04-24T10:11:01;26.00;;;24.57;;
66189;SDS011;52992;52.084;5.412;2023-04-24T10:13:28;27.80;;;26.00;;
66189;SDS011;52992;52.084;5.412;2023-04-24T10:15:55;28.20;;;26.03;;
66189;SDS011;52992;52.084;5.412;2023-04-24T10:18:25;26.93;;;25.63;;
66189;SDS011;52992;52.084;5.412;2023-04-24T10:20:53;27.20;;;25.73;;
66189;SDS011;52992;52.084;5.412;2023-04-24T10:23:21;27.00;;;25.43;;
66189;SDS011;52992;52.084;5.412;2023-04-24T10:25:49;28.87;;;27.23;;
66189;SDS011;52992;52.084;5.412;2023-04-24T10:28:18;23.70;;;22.00;;
66189;SDS011;52992;52.084;5.412;2023-04-24T10:30:45;25.07;;;23.50;;
66189;SDS011;52992;52.084;5.412;2023-04-24T10:33:13;25.93;;;24.43;;
66189;SDS011;52992;52.084;5.412;2023-04-24T10:35:41;25.27;;;23.80;;
66189;SDS011;52992;52.084;5.412;2023-04-24T10:38:16;24.83;;;23.63;;
66189;SDS011;52992;52.084;5.412;2023-04-24T10:40:51;25.33;;;24.00;;
66189;SDS011;52992;52.084;5.412;2023-04-24T10:43:18;24.17;;;23.17;;
66189;SDS011;52992;52.084;5.412;2023-04-24T10:46:04;27.83;;;26.13;;
66189;SDS011;52992;52.084;5.412;2023-04-24T10:48:33;24.77;;;23.53;;
66189;SDS011;52992;52.084;5.412;2023-04-24T10:51:00;25.27;;;24.20;;
66189;SDS011;52992;52.084;5.412;2023-04-24T10:53:28;24.90;;;23.53;;
66189;SDS011;52992;52.084;5.412;2023-04-24T10:58:23;25.47;;;24.07;;
66189;SDS011;52992;52.084;5.412;2023-04-24T11:00:57;24.17;;;23.17;;
66189;SDS011;52992;52.084;5.412;2023-04-24T11:03:27;21.07;;;20.17;;
66189;SDS011;52992;52.084;5.412;2023-04-24T11:10:58;21.03;;;19.80;;
66189;SDS011;52992;52.084;5.412;2023-04-24T11:16:20;19.97;;;18.67;;
66189;SDS011;52992;52.084;5.412;2023-04-24T11:19:30;24.53;;;23.00;;
66189;SDS011;52992;52.084;5.412;2023-04-24T11:21:45;25.80;;;24.07;;
66189;SDS011;52992;52.084;5.412;2023-04-24T11:24:32;28.67;;;26.93;;
66189;SDS011;52992;52.084;5.412;2023-04-24T11:29:39;26.17;;;24.97;;
66189;SDS011;52992;52.084;5.412;2023-04-24T11:32:14;28.60;;;27.33;;
66189;SDS011;52992;52.084;5.412;2023-04-24T11:34:46;29.13;;;27.57;;
66189;SDS011;52992;52.084;5.412;2023-04-24T11:37:15;33.97;;;32.47;;
66189;SDS011;52992;52.084;5.412;2023-04-24T11:39:42;30.40;;;29.10;;
66189;SDS011;52992;52.084;5.412;2023-04-24T11:42:09;33.53;;;31.63;;
66189;SDS011;52992;52.084;5.412;2023-04-24T11:44:36;31.50;;;29.97;;
66189;SDS011;52992;52.084;5.412;2023-04-24T11:47:04;26.87;;;25.67;;
66189;SDS011;52992;52.084;5.412;2023-04-24T11:49:32;26.00;;;24.90;;
66189;SDS011;52992;52.084;5.412;2023-04-24T11:51:59;28.10;;;26.90;;
66189;SDS011;52992;52.084;5.412;2023-04-24T11:54:27;22.83;;;21.67;;
66189;SDS011;52992;52.084;5.412;2023-04-24T11:56:55;22.47;;;21.57;;
66189;SDS011;52992;52.084;5.412;2023-04-24T11:59:22;20.60;;;19.40;;
66189;SDS011;52992;52.084;5.412;2023-04-24T12:01:49;17.60;;;16.80;;
66189;SDS011;52992;52.084;5.412;2023-04-24T12:04:17;20.83;;;19.93;;
66189;SDS011;52992;52.084;5.412;2023-04-24T12:07:04;17.80;;;16.90;;
66189;SDS011;52992;52.084;5.412;2023-04-24T12:09:41;21.07;;;19.97;;
66189;SDS011;52992;52.084;5.412;2023-04-24T12:12:13;19.67;;;18.87;;
66189;SDS011;52992;52.084;5.412;2023-04-24T12:14:47;19.50;;;18.47;;
66189;SDS011;52992;52.084;5.412;2023-04-24T12:17:16;18.13;;;17.33;;
66189;SDS011;52992;52.084;5.412;2023-04-24T12:19:47;18.73;;;17.93;;
66189;SDS011;52992;52.084;5.412;2023-04-24T12:22:14;18.00;;;16.80;;
66189;SDS011;52992;52.084;5.412;2023-04-24T12:27:25;20.37;;;19.20;;
66189;SDS011;52992;52.084;5.412;2023-04-24T12:29:58;19.73;;;18.57;;
66189;SDS011;52992;52.084;5.412;2023-04-24T12:32:25;20.17;;;18.97;;
66189;SDS011;52992;52.084;5.412;2023-04-24T12:34:53;21.73;;;20.60;;
66189;SDS011;52992;52.084;5.412;2023-04-24T12:37:23;20.00;;;18.80;;
66189;SDS011;52992;52.084;5.412;2023-04-24T12:40:01;19.00;;;18.00;;
66189;SDS011;52992;52.084;5.412;2023-04-24T12:42:43;19.33;;;18.23;;
66189;SDS011;52992;52.084;5.412;2023-04-24T12:45:14;18.13;;;17.13;;
66189;SDS011;52992;52.084;5.412;2023-04-24T12:47:42;18.00;;;17.07;;
66189;SDS011;52992;52.084;5.412;2023-04-24T12:50:11;19.27;;;17.70;;
66189;SDS011;52992;52.084;5.412;2023-04-24T12:52:39;19.40;;;18.33;;
66189;SDS011;52992;52.084;5.412;2023-04-24T12:55:07;19.13;;;17.93;;
66189;SDS011;52992;52.084;5.412;2023-04-24T12:57:36;18.57;;;17.67;;
66189;SDS011;52992;52.084;5.412;2023-04-24T13:00:04;20.60;;;18.80;;
66189;SDS011;52992;52.084;5.412;2023-04-24T13:02:33;18.97;;;17.67;;
66189;SDS011;52992;52.084;5.412;2023-04-24T13:05:01;19.50;;;17.97;;
66189;SDS011;52992;52.084;5.412;2023-04-24T13:07:28;18.37;;;17.20;;
66189;SDS011;52992;52.084;5.412;2023-04-24T13:09:55;20.80;;;19.27;;
66189;SDS011;52992;52.084;5.412;2023-04-24T13:12:23;20.13;;;18.90;;
66189;SDS011;52992;52.084;5.412;2023-04-24T13:14:51;20.03;;;18.77;;
66189;SDS011;52992;52.084;5.412;2023-04-24T13:17:19;22.60;;;20.87;;
66189;SDS011;52992;52.084;5.412;2023-04-24T13:19:46;22.57;;;20.83;;
66189;SDS011;52992;52.084;5.412;2023-04-24T13:22:15;21.10;;;20.00;;
66189;SDS011;52992;52.084;5.412;2023-04-24T13:24:44;26.90;;;24.98;;
66189;SDS011;52992;52.084;5.412;2023-04-24T13:27:11;26.03;;;24.53;;
66189;SDS011;52992;52.084;5.412;2023-04-24T13:29:38;31.27;;;29.33;;
66189;SDS011;52992;52.084;5.412;2023-04-24T13:32:05;19.83;;;18.00;;
66189;SDS011;52992;52.084;5.412;2023-04-24T13:34:32;19.40;;;17.87;;
66189;SDS011;52992;52.084;5.412;2023-04-24T13:37:01;19.87;;;18.20;;
66189;SDS011;52992;52.084;5.412;2023-04-24T13:39:30;19.73;;;18.50;;
66189;SDS011;52992;52.084;5.412;2023-04-24T13:41:57;20.77;;;18.80;;
66189;SDS011;52992;52.084;5.412;2023-04-24T13:44:24;19.70;;;18.27;;
66189;SDS011;52992;52.084;5.412;2023-04-24T13:46:52;22.40;;;20.90;;
66189;SDS011;52992;52.084;5.412;2023-04-24T13:49:23;21.00;;;19.20;;
66189;SDS011;52992;52.084;5.412;2023-04-24T13:51:54;19.67;;;18.10;;
66189;SDS011;52992;52.084;5.412;2023-04-24T13:54:21;19.40;;;17.80;;
66189;SDS011;52992;52.084;5.412;2023-04-24T13:56:52;20.37;;;19.13;;
66189;SDS011;52992;52.084;5.412;2023-04-24T13:59:22;20.37;;;18.37;;
66189;SDS011;52992;52.084;5.412;2023-04-24T14:01:49;20.03;;;18.47;;
66189;SDS011;52992;52.084;5.412;2023-04-24T14:04:16;19.93;;;18.33;;
66189;SDS011;52992;52.084;5.412;2023-04-24T14:06:43;19.73;;;18.20;;
66189;SDS011;52992;52.084;5.412;2023-04-24T14:09:10;19.80;;;18.30;;
66189;SDS011;52992;52.084;5.412;2023-04-24T14:11:37;20.13;;;18.53;;
66189;SDS011;52992;52.084;5.412;2023-04-24T14:14:04;18.80;;;17.60;;
66189;SDS011;52992;52.084;5.412;2023-04-24T14:16:32;18.77;;;17.77;;
66189;SDS011;52992;52.084;5.412;2023-04-24T14:18:59;19.57;;;18.07;;
66189;SDS011;52992;52.084;5.412;2023-04-24T14:21:26;19.07;;;18.07;;
66189;SDS011;52992;52.084;5.412;2023-04-24T14:23:52;21.47;;;19.20;;
66189;SDS011;52992;52.084;5.412;2023-04-24T14:26:19;21.50;;;19.57;;
66189;SDS011;52992;52.084;5.412;2023-04-24T14:28:46;21.47;;;19.70;;
66189;SDS011;52992;52.084;5.412;2023-04-24T14:31:13;20.63;;;19.20;;
66189;SDS011;52992;52.084;5.412;2023-04-24T14:33:40;20.87;;;19.13;;
66189;SDS011;52992;52.084;5.412;2023-04-24T14:36:07;20.07;;;18.60;;
66189;SDS011;52992;52.084;5.412;2023-04-24T14:38:34;20.90;;;19.30;;
66189;SDS011;52992;52.084;5.412;2023-04-24T14:41:01;20.30;;;19.00;;
66189;SDS011;52992;52.084;5.412;2023-04-24T14:43:39;20.73;;;19.30;;
66189;SDS011;52992;52.084;5.412;2023-04-24T14:46:06;20.40;;;19.10;;